createdAt,value
2018-09-16T00:00:20.591Z,17.10
2018-09-16T00:02:49.851Z,17.00
2018-09-16T00:05:20.650Z,17.80
2018-09-16T00:07:49.827Z,19.17
2018-09-16T00:10:20.151Z,18.23
2018-09-16T00:12:49.401Z,17.60
2018-09-16T00:15:19.096Z,16.77
2018-09-16T00:17:48.398Z,20.07
2018-09-16T00:20:19.282Z,19.40
2018-09-16T00:22:48.638Z,20.57
2018-09-16T00:25:18.725Z,21.10
2018-09-16T00:27:47.977Z,22.80
2018-09-16T00:30:19.514Z,20.27
2018-09-16T00:32:48.739Z,20.40
2018-09-16T00:35:19.429Z,21.33
2018-09-16T00:40:53.280Z,21.17
2018-09-16T00:43:32.344Z,21.63
2018-09-16T00:46:01.880Z,21.37
2018-09-16T00:48:31.257Z,20.47
2018-09-16T00:51:00.732Z,21.47
2018-09-16T00:53:30.063Z,21.23
2018-09-16T00:55:59.249Z,22.90
2018-09-16T00:59:10.342Z,22.63
2018-09-16T01:01:39.500Z,22.83
2018-09-16T01:04:09.245Z,22.30
2018-09-16T01:06:39.329Z,19.90
2018-09-16T01:09:11.954Z,20.67
2018-09-16T01:11:41.352Z,19.70
2018-09-16T01:14:10.895Z,18.53
2018-09-16T01:16:41.369Z,19.27
2018-09-16T01:19:11.593Z,20.43
2018-09-16T01:21:40.765Z,21.83
2018-09-16T01:24:10.033Z,21.77
2018-09-16T01:26:39.262Z,21.63
2018-09-16T01:29:08.839Z,21.37
2018-09-16T01:31:37.955Z,27.10
2018-09-16T01:34:07.421Z,32.07
2018-09-16T01:50:20.449Z,27.10
2018-09-16T01:52:49.661Z,30.80
2018-09-16T01:55:19.722Z,34.50
2018-09-16T01:58:15.582Z,34.90
2018-09-16T02:00:44.881Z,33.23
2018-09-16T02:03:14.593Z,31.97
2018-09-16T02:05:48.590Z,32.87
2018-09-16T02:08:18.322Z,32.10
2018-09-16T02:10:47.396Z,31.87
2018-09-16T02:13:17.829Z,28.73
2018-09-16T02:15:47.123Z,27.97
2018-09-16T02:18:16.732Z,29.50
2018-09-16T02:20:46.043Z,27.17
2018-09-16T02:23:15.728Z,26.17
2018-09-16T02:25:44.946Z,27.50
2018-09-16T02:28:14.435Z,25.67
2018-09-16T02:30:43.817Z,24.33
2018-09-16T02:33:13.020Z,24.67
2018-09-16T02:35:42.230Z,23.93
2018-09-16T02:38:11.303Z,25.50
2018-09-16T02:40:40.598Z,24.83
2018-09-16T02:43:09.841Z,24.13
2018-09-16T02:45:40.239Z,23.50
2018-09-16T02:48:09.379Z,22.63
2018-09-16T02:50:38.665Z,23.07
2018-09-16T02:53:07.957Z,21.73
2018-09-16T02:55:37.121Z,22.10
2018-09-16T02:58:06.289Z,22.37
2018-09-16T03:00:35.524Z,22.00
2018-09-16T03:03:04.616Z,22.60
2018-09-16T03:05:38.814Z,23.87
2018-09-16T03:08:08.186Z,22.80
2018-09-16T03:10:37.490Z,21.07
2018-09-16T03:13:06.741Z,21.40
2018-09-16T03:15:36.255Z,23.13
2018-09-16T03:18:05.366Z,23.50
2018-09-16T03:20:34.670Z,25.37
2018-09-16T03:23:04.298Z,22.27
2018-09-16T03:25:33.609Z,22.97
2018-09-16T03:28:03.011Z,23.17
2018-09-16T03:30:32.217Z,21.50
2018-09-16T03:33:01.733Z,22.00
2018-09-16T03:35:31.289Z,23.53
2018-09-16T03:38:00.708Z,23.37
2018-09-16T03:40:29.945Z,23.17
2018-09-16T03:42:59.211Z,24.17
2018-09-16T03:45:28.489Z,23.47
2018-09-16T03:47:58.420Z,23.10
2018-09-16T03:50:27.737Z,24.77
2018-09-16T03:52:56.946Z,20.53
2018-09-16T03:55:26.242Z,83.43
2018-09-16T03:57:55.497Z,19.77
2018-09-16T04:03:53.670Z,23.83
2018-09-16T04:06:23.130Z,23.27
2018-09-16T04:08:52.473Z,24.40
2018-09-16T04:11:21.631Z,26.33
2018-09-16T04:13:50.773Z,30.87
2018-09-16T04:16:20.384Z,30.70
2018-09-16T04:18:49.747Z,30.07
2018-09-16T04:21:21.595Z,29.87
2018-09-16T04:23:50.819Z,30.57
2018-09-16T04:26:19.831Z,29.93
2018-09-16T04:28:48.858Z,29.73
2018-09-16T04:31:18.515Z,29.77
2018-09-16T04:33:47.721Z,31.07
2018-09-16T04:36:17.722Z,28.83
2018-09-16T04:38:47.208Z,28.13
2018-09-16T04:41:16.456Z,27.10
2018-09-16T04:43:45.691Z,106.10
2018-09-16T04:46:16.401Z,96.43
2018-09-16T04:48:45.467Z,27.63
2018-09-16T04:51:14.451Z,29.50
2018-09-16T04:53:43.620Z,38.50
2018-09-16T04:56:12.617Z,44.67
2018-09-16T04:58:41.645Z,34.10
2018-09-16T05:01:10.679Z,31.10
2018-09-16T05:03:42.605Z,32.37
2018-09-16T05:06:11.679Z,32.97
2018-09-16T05:08:40.770Z,28.83
2018-09-16T05:11:09.900Z,25.13
2018-09-16T05:13:38.926Z,25.33
2018-09-16T05:16:07.918Z,27.07
2018-09-16T05:18:36.888Z,23.63
2018-09-16T05:21:06.359Z,23.10
2018-09-16T05:23:35.362Z,23.40
2018-09-16T05:26:04.457Z,20.17
2018-09-16T05:28:34.368Z,21.60
2018-09-16T05:31:04.044Z,19.53
2018-09-16T05:33:33.692Z,17.83
2018-09-16T05:36:02.791Z,16.57
2018-09-16T05:38:31.765Z,15.93
2018-09-16T05:41:07.311Z,15.10
2018-09-16T05:43:36.336Z,14.17
2018-09-16T05:46:05.694Z,14.17
2018-09-16T05:48:35.270Z,12.30
2018-09-16T05:51:04.837Z,12.47
2018-09-16T05:53:33.874Z,11.47
2018-09-16T05:56:02.970Z,11.40
2018-09-16T05:58:32.138Z,9.47
2018-09-16T06:01:01.587Z,9.70
2018-09-16T06:03:30.796Z,8.83
2018-09-16T06:06:03.129Z,8.80
2018-09-16T06:08:32.491Z,9.57
2018-09-16T06:11:01.658Z,8.90
2018-09-16T06:13:31.601Z,9.10
2018-09-16T06:16:07.350Z,9.03
2018-09-16T06:18:36.595Z,8.70
2018-09-16T06:21:05.671Z,8.43
2018-09-16T06:23:35.055Z,8.90
2018-09-16T06:26:04.216Z,9.70
2018-09-16T06:28:33.539Z,8.60
2018-09-16T06:31:02.934Z,9.23
2018-09-16T06:33:32.116Z,8.17
2018-09-16T06:36:03.756Z,8.40
2018-09-16T06:38:33.418Z,9.23
2018-09-16T06:41:05.369Z,7.90
2018-09-16T06:43:35.317Z,7.90
2018-09-16T06:46:04.355Z,8.10
2018-09-16T06:48:34.418Z,7.30
2018-09-16T06:51:03.675Z,8.10
2018-09-16T06:53:32.828Z,7.47
2018-09-16T06:56:01.968Z,7.87
2018-09-16T06:58:31.200Z,7.37
2018-09-16T07:01:00.320Z,7.83
2018-09-16T07:03:29.506Z,7.57
2018-09-16T07:05:58.551Z,8.10
2018-09-16T07:08:27.674Z,7.70
2018-09-16T07:10:56.847Z,8.30
2018-09-16T07:13:29.825Z,8.30
2018-09-16T07:16:21.380Z,7.83
2018-09-16T07:18:51.056Z,8.10
2018-09-16T07:21:23.588Z,7.50
2018-09-16T07:23:56.750Z,7.43
2018-09-16T07:26:29.255Z,7.23
2018-09-16T07:28:58.438Z,7.80
2018-09-16T07:31:27.486Z,7.47
2018-09-16T07:33:56.809Z,8.30
2018-09-16T07:36:26.773Z,7.57
2018-09-16T07:38:56.074Z,7.70
2018-09-16T07:41:25.307Z,7.90
2018-09-16T07:43:54.948Z,7.77
2018-09-16T07:46:24.039Z,7.50
2018-09-16T07:48:53.272Z,7.83
2018-09-16T07:51:22.344Z,7.37
2018-09-16T07:53:51.346Z,8.10
2018-09-16T07:56:20.472Z,7.80
2018-09-16T07:58:50.005Z,7.47
2018-09-16T08:01:19.351Z,7.60
2018-09-16T08:03:48.633Z,7.23
2018-09-16T08:06:18.090Z,7.40
2018-09-16T08:08:47.074Z,6.77
2018-09-16T08:11:16.433Z,7.20
2018-09-16T08:13:46.003Z,7.73
2018-09-16T08:24:49.589Z,8.10
2018-09-16T08:27:18.725Z,7.77
2018-09-16T08:29:47.808Z,7.80
2018-09-16T08:32:16.906Z,7.93
2018-09-16T08:34:45.967Z,7.97
2018-09-16T08:37:15.260Z,8.10
2018-09-16T08:39:44.341Z,8.17
2018-09-16T08:42:13.579Z,7.23
2018-09-16T08:44:42.832Z,7.13
2018-09-16T08:56:47.153Z,7.57
2018-09-16T08:59:16.177Z,7.20
2018-09-16T09:01:45.254Z,7.10
2018-09-16T09:04:14.266Z,7.10
2018-09-16T09:06:43.501Z,6.80
2018-09-16T09:09:13.255Z,7.03
2018-09-16T09:11:43.425Z,6.93
2018-09-16T09:14:12.907Z,6.60
2018-09-16T09:16:41.900Z,7.20
2018-09-16T09:19:11.606Z,7.03
2018-09-16T09:21:40.671Z,7.03
2018-09-16T09:32:45.638Z,7.23
2018-09-16T09:35:18.399Z,7.40
2018-09-16T09:37:47.605Z,7.13
2018-09-16T09:40:34.048Z,7.00
2018-09-16T09:43:33.475Z,7.20
2018-09-16T09:46:28.606Z,6.73
2018-09-16T09:49:07.251Z,6.47
2018-09-16T09:51:36.728Z,6.30
2018-09-16T09:54:05.933Z,6.20
2018-09-16T09:56:36.285Z,6.23
2018-09-16T09:59:06.183Z,6.40
2018-09-16T10:01:35.185Z,6.93
2018-09-16T10:04:04.383Z,7.07
2018-09-16T10:06:34.086Z,7.50
2018-09-16T10:09:03.297Z,5.90
2018-09-16T10:11:32.830Z,6.70
2018-09-16T10:14:01.752Z,6.27
2018-09-16T10:16:31.189Z,6.47
2018-09-16T10:19:00.152Z,5.73
2018-09-16T10:21:29.492Z,6.17
2018-09-16T10:23:58.466Z,5.90
2018-09-16T10:26:27.572Z,6.23
2018-09-16T10:28:56.549Z,6.17
2018-09-16T10:31:25.496Z,5.50
2018-09-16T10:33:54.934Z,6.17
2018-09-16T10:36:23.929Z,5.70
2018-09-16T10:38:53.036Z,6.20
2018-09-16T10:41:22.082Z,6.33
2018-09-16T10:43:51.030Z,5.80
2018-09-16T10:46:20.154Z,6.10
2018-09-16T11:04:34.581Z,6.03
2018-09-16T11:07:03.765Z,5.33
2018-09-16T11:09:32.848Z,6.40
2018-09-16T11:12:01.878Z,6.33
2018-09-16T11:14:30.921Z,5.80
2018-09-16T11:17:00.053Z,6.20
2018-09-16T11:19:29.137Z,6.10
2018-09-16T11:21:58.131Z,5.30
2018-09-16T11:24:27.217Z,6.07
2018-09-16T11:26:56.237Z,6.23
2018-09-16T11:29:25.233Z,5.50
2018-09-16T11:31:54.201Z,5.83
2018-09-16T11:34:23.238Z,5.40
2018-09-16T11:36:52.318Z,5.70
2018-09-16T11:39:21.342Z,6.27
2018-09-16T11:41:50.397Z,6.00
2018-09-16T11:44:19.391Z,6.47
2018-09-16T11:46:48.425Z,5.70
2018-09-16T11:49:17.466Z,5.87
2018-09-16T11:51:46.641Z,5.50
2018-09-16T11:54:15.737Z,6.60
2018-09-16T11:56:45.041Z,6.27
2018-09-16T11:59:14.043Z,5.53
2018-09-16T12:01:43.065Z,5.17
2018-09-16T12:04:12.224Z,5.83
2018-09-16T12:06:41.347Z,5.40
2018-09-16T12:09:11.164Z,5.20
2018-09-16T12:11:40.406Z,5.00
2018-09-16T12:14:09.354Z,5.37
2018-09-16T12:16:38.328Z,4.73
2018-09-16T12:19:07.629Z,5.40
2018-09-16T12:21:37.966Z,5.13
2018-09-16T12:24:07.488Z,5.40
2018-09-16T12:26:36.608Z,5.13
2018-09-16T12:29:17.121Z,4.53
2018-09-16T12:31:50.881Z,4.20
2018-09-16T12:34:20.192Z,4.50
2018-09-16T12:36:49.291Z,4.07
2018-09-16T12:39:18.298Z,4.13
2018-09-16T12:41:47.668Z,4.77
2018-09-16T12:44:16.907Z,5.00
2018-09-16T12:46:46.415Z,5.10
2018-09-16T12:49:15.761Z,4.97
2018-09-16T12:51:44.832Z,4.80
2018-09-16T12:54:14.075Z,5.50
2018-09-16T12:56:43.226Z,5.30
2018-09-16T12:59:12.348Z,6.23
2018-09-16T13:01:41.476Z,5.93
2018-09-16T13:04:10.511Z,5.87
2018-09-16T13:06:39.638Z,5.90
2018-09-16T13:09:11.391Z,6.13
2018-09-16T13:11:40.393Z,5.57
2018-09-16T13:14:09.419Z,5.77
2018-09-16T13:16:38.678Z,6.17
2018-09-16T13:19:08.365Z,6.47
2018-09-16T13:21:44.573Z,6.27
2018-09-16T13:24:13.663Z,6.47
2018-09-16T13:26:42.658Z,5.70
2018-09-16T13:29:12.578Z,5.83
2018-09-16T13:31:41.755Z,6.37
2018-09-16T13:34:10.850Z,6.00
2018-09-16T13:36:40.178Z,6.33
2018-09-16T13:39:11.192Z,5.97
2018-09-16T13:41:40.685Z,5.87
2018-09-16T13:44:09.922Z,5.97
2018-09-16T13:46:39.235Z,5.10
2018-09-16T13:49:09.046Z,5.87
2018-09-16T13:51:38.465Z,5.80
2018-09-16T13:54:08.300Z,5.70
2018-09-16T13:56:37.381Z,5.73
2018-09-16T13:59:07.281Z,5.60
2018-09-16T14:01:36.659Z,5.50
2018-09-16T14:13:08.059Z,5.40
2018-09-16T14:15:37.058Z,5.00
2018-09-16T14:18:09.997Z,5.20
2018-09-16T14:20:39.501Z,5.03
2018-09-16T14:26:39.739Z,6.57
2018-09-16T14:29:08.751Z,7.10
2018-09-16T14:31:39.639Z,6.80
2018-09-16T14:34:09.175Z,6.97
2018-09-16T14:36:39.946Z,6.37
2018-09-16T14:46:25.431Z,7.87
2018-09-16T14:53:52.410Z,5.60
2018-09-16T15:00:03.194Z,5.87
2018-09-16T15:05:27.090Z,6.20
2018-09-16T15:14:05.593Z,5.67
2018-09-16T15:16:34.900Z,5.17
2018-09-16T15:19:04.112Z,4.83
2018-09-16T15:21:33.268Z,5.33
2018-09-16T15:27:09.672Z,5.07
2018-09-16T15:29:38.858Z,5.30
2018-09-16T15:32:08.014Z,5.13
2018-09-16T15:34:37.152Z,5.90
2018-09-16T15:37:06.140Z,5.13
2018-09-16T15:42:41.464Z,5.03
2018-09-16T15:51:27.040Z,5.50
2018-09-16T15:53:56.079Z,5.70
2018-09-16T15:56:26.380Z,5.40
2018-09-16T15:58:55.953Z,5.70
2018-09-16T16:04:56.292Z,5.67
2018-09-16T16:16:29.602Z,7.03
2018-09-16T16:18:58.646Z,6.33
2018-09-16T16:21:27.769Z,6.53
2018-09-16T16:23:56.921Z,6.40
2018-09-16T16:26:26.176Z,6.00
2018-09-16T16:28:55.307Z,6.00
2018-09-16T16:31:24.436Z,6.93
2018-09-16T16:33:53.760Z,6.27
2018-09-16T16:36:22.846Z,6.37
2018-09-16T16:38:51.856Z,6.27
2018-09-16T16:41:20.856Z,6.37
2018-09-16T16:43:49.971Z,6.17
2018-09-16T16:46:19.063Z,5.83
2018-09-16T16:48:48.096Z,6.93
2018-09-16T16:51:17.149Z,6.57
2018-09-16T16:53:46.315Z,6.67
2018-09-16T16:56:15.663Z,6.57
2018-09-16T16:58:45.066Z,6.47
2018-09-16T17:01:14.494Z,6.40
2018-09-16T17:14:14.315Z,6.13
2018-09-16T17:17:26.646Z,6.53
2018-09-16T17:20:07.406Z,7.23
2018-09-16T17:22:36.968Z,6.87
2018-09-16T17:25:07.092Z,7.50
2018-09-16T17:27:37.963Z,8.37
2018-09-16T17:33:03.713Z,7.83
2018-09-16T17:35:32.900Z,7.83
2018-09-16T17:38:02.144Z,8.07
2018-09-16T17:40:31.284Z,8.53
2018-09-16T17:43:00.421Z,8.43
2018-09-16T17:45:29.735Z,8.77
2018-09-16T17:47:58.988Z,9.87
2018-09-16T17:50:28.304Z,8.80
2018-09-16T17:52:57.464Z,8.00
2018-09-16T17:55:26.630Z,8.33
2018-09-16T17:57:55.683Z,8.23
2018-09-16T18:00:24.860Z,8.50
2018-09-16T18:02:53.973Z,8.67
2018-09-16T18:05:23.454Z,8.73
2018-09-16T18:07:52.819Z,8.73
2018-09-16T18:10:21.968Z,8.80
2018-09-16T18:12:51.182Z,8.67
2018-09-16T18:15:21.459Z,8.33
2018-09-16T18:17:50.678Z,8.83
2018-09-16T18:20:20.571Z,8.63
2018-09-16T18:22:49.963Z,8.10
2018-09-16T18:25:19.241Z,9.00
2018-09-16T18:27:48.801Z,8.77
2018-09-16T18:30:20.240Z,9.57
2018-09-16T18:32:49.464Z,8.60
2018-09-16T18:35:20.834Z,9.40
2018-09-16T18:37:50.013Z,9.00
2018-09-16T18:40:21.081Z,8.00
2018-09-16T18:42:50.242Z,8.23
2018-09-16T18:45:19.360Z,9.07
2018-09-16T18:47:49.768Z,7.47
2018-09-16T18:50:19.889Z,7.67
2018-09-16T18:52:49.001Z,8.17
2018-09-16T18:55:18.415Z,8.47
2018-09-16T18:57:48.068Z,8.47
2018-09-16T19:00:18.977Z,8.53
2018-09-16T19:02:48.308Z,8.30
2018-09-16T19:05:18.797Z,7.47
2018-09-16T19:07:48.142Z,8.50
2018-09-16T19:10:19.392Z,8.23
2018-09-16T19:12:48.559Z,7.60
2018-09-16T19:15:18.439Z,7.90
2018-09-16T19:17:48.392Z,7.80
2018-09-16T19:20:20.454Z,8.43
2018-09-16T19:22:49.555Z,8.30
2018-09-16T19:25:18.685Z,7.90
2018-09-16T19:27:48.096Z,8.33
2018-09-16T19:30:19.494Z,9.07
2018-09-16T19:32:48.560Z,7.97
2018-09-16T19:35:20.916Z,7.10
2018-09-16T19:37:50.211Z,8.20
2018-09-16T19:40:20.964Z,7.17
2018-09-16T19:42:50.033Z,8.20
2018-09-16T19:45:19.919Z,8.20
2018-09-16T19:47:49.017Z,8.57
2018-09-16T19:50:18.641Z,8.87
2018-09-16T19:52:48.499Z,8.13
2018-09-16T19:55:18.573Z,8.60
2018-09-16T19:57:49.581Z,8.67
2018-09-16T20:00:19.264Z,8.97
2018-09-16T20:02:49.437Z,8.23
2018-09-16T20:05:19.613Z,9.37
2018-09-16T20:07:48.874Z,8.57
2018-09-16T20:10:19.945Z,9.53
2018-09-16T20:12:49.235Z,8.73
2018-09-16T20:15:19.509Z,9.47
2018-09-16T20:17:48.704Z,9.27
2018-09-16T20:20:20.328Z,8.97
2018-09-16T20:22:48.320Z,9.50
2018-09-16T20:25:18.733Z,9.47
2018-09-16T20:27:48.162Z,9.17
2018-09-16T20:30:19.578Z,10.03
2018-09-16T20:32:48.628Z,10.73
2018-09-16T20:35:20.564Z,11.13
2018-09-16T20:37:49.629Z,10.53
2018-09-16T20:40:19.127Z,10.07
2018-09-16T20:42:48.374Z,9.83
2018-09-16T20:45:18.346Z,9.40
2018-09-16T20:47:48.071Z,9.23
2018-09-16T20:50:18.777Z,9.03
2018-09-16T20:52:48.734Z,9.50
2018-09-16T20:55:18.003Z,9.40
2018-09-16T20:57:48.186Z,8.83
2018-09-16T21:00:19.347Z,8.37
2018-09-16T21:02:49.295Z,9.00
2018-09-16T21:05:19.323Z,9.00
2018-09-16T21:14:42.414Z,9.03
2018-09-16T21:17:11.764Z,8.90
2018-09-16T21:19:41.033Z,9.23
2018-09-16T21:22:10.716Z,9.17
2018-09-16T21:27:23.099Z,9.80
2018-09-16T21:31:02.563Z,10.57
2018-09-16T21:33:31.821Z,11.00
2018-09-16T21:36:01.117Z,10.40
2018-09-16T21:38:30.302Z,10.30
2018-09-16T21:40:59.387Z,10.17
2018-09-16T21:43:28.616Z,10.90
2018-09-16T21:45:57.762Z,11.10
2018-09-16T21:48:27.840Z,10.80
2018-09-16T21:50:57.011Z,11.40
2018-09-16T21:53:32.968Z,11.10
2018-09-16T21:56:02.204Z,11.43
2018-09-16T21:58:31.607Z,12.70
2018-09-16T22:01:00.981Z,11.57
2018-09-16T22:06:43.460Z,11.10
2018-09-16T22:09:12.723Z,11.47
2018-09-16T22:11:42.239Z,11.83
2018-09-16T22:14:11.706Z,11.23
2018-09-16T22:16:45.012Z,11.87
2018-09-16T22:19:14.376Z,11.00
2018-09-16T22:21:43.574Z,10.83
2018-09-16T22:24:12.703Z,11.17
2018-09-16T22:26:42.230Z,11.70
2018-09-16T22:29:11.530Z,11.53
2018-09-16T22:31:40.952Z,11.23
2018-09-16T22:34:10.285Z,11.33
2018-09-16T22:36:39.855Z,11.13
2018-09-16T22:39:09.718Z,10.70
2018-09-16T22:41:38.960Z,11.37
2018-09-16T22:44:08.408Z,10.90
2018-09-16T22:46:37.593Z,11.43
2018-09-16T22:49:06.814Z,10.73
2018-09-16T22:51:35.933Z,11.67
2018-09-16T22:54:06.467Z,11.77
2018-09-16T22:56:35.940Z,10.67
2018-09-16T22:59:05.122Z,11.20
2018-09-16T23:01:34.145Z,11.80
2018-09-16T23:04:04.232Z,12.97
2018-09-16T23:10:09.570Z,12.37
2018-09-16T23:12:38.904Z,12.60
2018-09-16T23:15:08.120Z,11.93
2018-09-16T23:17:37.252Z,12.50
2018-09-16T23:20:06.538Z,11.10
2018-09-16T23:22:35.575Z,11.80
2018-09-16T23:25:04.872Z,12.47
2018-09-16T23:27:34.029Z,13.27
2018-09-16T23:30:03.107Z,12.80
2018-09-16T23:32:32.180Z,12.97
2018-09-16T23:35:04.267Z,13.33
2018-09-16T23:37:33.693Z,14.27
2018-09-16T23:40:02.704Z,13.20
2018-09-16T23:42:31.851Z,14.53
2018-09-16T23:45:01.124Z,12.83
2018-09-16T23:47:30.347Z,13.03
2018-09-16T23:49:59.673Z,13.23
2018-09-16T23:52:33.746Z,13.30
2018-09-16T23:55:03.303Z,12.93
2018-09-16T23:57:32.380Z,12.23
